sensor_id;sensor_type;location;lat;lon;timestamp;P1;durP1;ratioP1;P2;durP2;ratioP2
76818;SDS011;65772;51.096;17.006;2023-02-24T00:00:27;42.90;;;20.50;;
76818;SDS011;65772;51.096;17.006;2023-02-24T00:03:04;43.00;;;21.70;;
76818;SDS011;65772;51.096;17.006;2023-02-24T00:05:38;40.20;;;20.00;;
76818;SDS011;65772;51.096;17.006;2023-02-24T00:08:11;43.50;;;21.70;;
76818;SDS011;65772;51.096;17.006;2023-02-24T00:10:41;40.20;;;21.50;;
76818;SDS011;65772;51.096;17.006;2023-02-24T00:13:12;43.50;;;21.70;;
76818;SDS011;65772;51.096;17.006;2023-02-24T00:15:58;40.30;;;22.80;;
76818;SDS011;65772;51.096;17.006;2023-02-24T00:18:30;41.50;;;21.80;;
76818;SDS011;65772;51.096;17.006;2023-02-24T00:21:03;40.30;;;21.20;;
76818;SDS011;65772;51.096;17.006;2023-02-24T00:23:37;41.40;;;21.80;;
76818;SDS011;65772;51.096;17.006;2023-02-24T00:26:10;35.20;;;19.20;;
76818;SDS011;65772;51.096;17.006;2023-02-24T00:28:42;37.00;;;18.60;;
76818;SDS011;65772;51.096;17.006;2023-02-24T00:31:15;37.20;;;17.50;;
76818;SDS011;65772;51.096;17.006;2023-02-24T00:33:47;38.50;;;19.80;;
76818;SDS011;65772;51.096;17.006;2023-02-24T00:36:18;34.50;;;19.30;;
76818;SDS011;65772;51.096;17.006;2023-02-24T00:38:51;39.30;;;19.70;;
76818;SDS011;65772;51.096;17.006;2023-02-24T00:41:24;32.90;;;18.30;;
76818;SDS011;65772;51.096;17.006;2023-02-24T00:43:58;39.80;;;20.00;;
76818;SDS011;65772;51.096;17.006;2023-02-24T00:46:34;39.20;;;20.00;;
76818;SDS011;65772;51.096;17.006;2023-02-24T00:49:06;41.50;;;21.80;;
76818;SDS011;65772;51.096;17.006;2023-02-24T00:51:45;40.80;;;20.80;;
76818;SDS011;65772;51.096;17.006;2023-02-24T00:54:22;41.40;;;20.50;;
76818;SDS011;65772;51.096;17.006;2023-02-24T00:56:54;37.20;;;19.90;;
76818;SDS011;65772;51.096;17.006;2023-02-24T00:59:26;39.60;;;21.00;;
76818;SDS011;65772;51.096;17.006;2023-02-24T01:01:57;37.20;;;19.70;;
76818;SDS011;65772;51.096;17.006;2023-02-24T01:04:29;36.90;;;19.00;;
76818;SDS011;65772;51.096;17.006;2023-02-24T01:07:00;39.90;;;20.30;;
76818;SDS011;65772;51.096;17.006;2023-02-24T01:09:37;41.10;;;21.60;;
76818;SDS011;65772;51.096;17.006;2023-02-24T01:12:09;38.90;;;18.70;;
76818;SDS011;65772;51.096;17.006;2023-02-24T01:14:58;38.70;;;19.20;;
76818;SDS011;65772;51.096;17.006;2023-02-24T01:17:33;38.60;;;19.50;;
76818;SDS011;65772;51.096;17.006;2023-02-24T01:20:08;37.90;;;18.50;;
76818;SDS011;65772;51.096;17.006;2023-02-24T01:22:47;34.60;;;17.80;;
76818;SDS011;65772;51.096;17.006;2023-02-24T01:25:19;34.70;;;18.30;;
76818;SDS011;65772;51.096;17.006;2023-02-24T01:27:53;36.40;;;19.70;;
76818;SDS011;65772;51.096;17.006;2023-02-24T01:30:24;37.60;;;19.40;;
76818;SDS011;65772;51.096;17.006;2023-02-24T01:32:54;38.10;;;18.70;;
76818;SDS011;65772;51.096;17.006;2023-02-24T01:35:28;37.50;;;19.80;;
76818;SDS011;65772;51.096;17.006;2023-02-24T01:38:01;37.10;;;19.30;;
76818;SDS011;65772;51.096;17.006;2023-02-24T01:40:33;36.30;;;19.60;;
76818;SDS011;65772;51.096;17.006;2023-02-24T01:43:04;39.80;;;19.90;;
76818;SDS011;65772;51.096;17.006;2023-02-24T01:45:37;40.00;;;20.50;;
76818;SDS011;65772;51.096;17.006;2023-02-24T01:48:08;40.60;;;21.30;;
76818;SDS011;65772;51.096;17.006;2023-02-24T01:50:43;42.30;;;21.70;;
76818;SDS011;65772;51.096;17.006;2023-02-24T01:53:15;36.20;;;18.20;;
76818;SDS011;65772;51.096;17.006;2023-02-24T01:55:47;35.60;;;18.80;;
76818;SDS011;65772;51.096;17.006;2023-02-24T01:58:22;39.20;;;19.40;;
76818;SDS011;65772;51.096;17.006;2023-02-24T02:00:57;40.20;;;18.80;;
76818;SDS011;65772;51.096;17.006;2023-02-24T02:03:35;38.90;;;20.50;;
76818;SDS011;65772;51.096;17.006;2023-02-24T02:06:12;37.40;;;18.50;;
76818;SDS011;65772;51.096;17.006;2023-02-24T02:08:44;37.90;;;19.40;;
76818;SDS011;65772;51.096;17.006;2023-02-24T02:11:15;37.60;;;18.80;;
76818;SDS011;65772;51.096;17.006;2023-02-24T02:13:48;38.90;;;20.10;;
76818;SDS011;65772;51.096;17.006;2023-02-24T02:19:23;43.00;;;20.90;;
76818;SDS011;65772;51.096;17.006;2023-02-24T02:22:18;37.60;;;19.40;;
76818;SDS011;65772;51.096;17.006;2023-02-24T02:25:05;37.90;;;19.90;;
76818;SDS011;65772;51.096;17.006;2023-02-24T02:30:43;43.30;;;20.40;;
76818;SDS011;65772;51.096;17.006;2023-02-24T02:33:56;44.80;;;21.50;;
76818;SDS011;65772;51.096;17.006;2023-02-24T02:39:14;36.90;;;17.80;;
76818;SDS011;65772;51.096;17.006;2023-02-24T02:41:52;38.90;;;16.50;;
76818;SDS011;65772;51.096;17.006;2023-02-24T02:44:30;39.70;;;17.70;;
76818;SDS011;65772;51.096;17.006;2023-02-24T02:49:40;37.40;;;16.90;;
76818;SDS011;65772;51.096;17.006;2023-02-24T02:52:13;38.90;;;17.90;;
76818;SDS011;65772;51.096;17.006;2023-02-24T02:54:50;41.40;;;20.10;;
76818;SDS011;65772;51.096;17.006;2023-02-24T02:57:25;44.70;;;21.60;;
76818;SDS011;65772;51.096;17.006;2023-02-24T03:00:00;41.20;;;21.00;;
76818;SDS011;65772;51.096;17.006;2023-02-24T03:02:40;41.20;;;20.90;;
76818;SDS011;65772;51.096;17.006;2023-02-24T03:05:15;40.20;;;21.00;;
76818;SDS011;65772;51.096;17.006;2023-02-24T03:07:49;43.30;;;21.20;;
76818;SDS011;65772;51.096;17.006;2023-02-24T03:10:24;46.10;;;21.20;;
76818;SDS011;65772;51.096;17.006;2023-02-24T03:13:01;42.50;;;19.70;;
76818;SDS011;65772;51.096;17.006;2023-02-24T03:15:33;43.30;;;20.50;;
76818;SDS011;65772;51.096;17.006;2023-02-24T03:18:11;42.70;;;19.60;;
76818;SDS011;65772;51.096;17.006;2023-02-24T03:20:48;37.70;;;17.90;;
76818;SDS011;65772;51.096;17.006;2023-02-24T03:23:24;35.40;;;17.00;;
76818;SDS011;65772;51.096;17.006;2023-02-24T03:25:59;38.50;;;17.70;;
76818;SDS011;65772;51.096;17.006;2023-02-24T03:28:46;37.60;;;18.70;;
76818;SDS011;65772;51.096;17.006;2023-02-24T03:31:29;41.80;;;19.00;;
76818;SDS011;65772;51.096;17.006;2023-02-24T03:34:09;40.30;;;19.30;;
76818;SDS011;65772;51.096;17.006;2023-02-24T03:36:45;41.50;;;20.00;;
76818;SDS011;65772;51.096;17.006;2023-02-24T03:39:17;38.00;;;19.20;;
76818;SDS011;65772;51.096;17.006;2023-02-24T03:41:56;39.30;;;19.60;;
76818;SDS011;65772;51.096;17.006;2023-02-24T03:44:31;41.50;;;19.50;;
76818;SDS011;65772;51.096;17.006;2023-02-24T03:47:01;39.00;;;19.50;;
76818;SDS011;65772;51.096;17.006;2023-02-24T03:49:33;39.00;;;18.90;;
76818;SDS011;65772;51.096;17.006;2023-02-24T03:52:08;40.10;;;19.10;;
76818;SDS011;65772;51.096;17.006;2023-02-24T03:54:53;37.50;;;18.40;;
76818;SDS011;65772;51.096;17.006;2023-02-24T03:57:38;36.20;;;16.30;;
76818;SDS011;65772;51.096;17.006;2023-02-24T04:00:40;35.40;;;17.70;;
76818;SDS011;65772;51.096;17.006;2023-02-24T04:03:20;38.40;;;18.70;;
76818;SDS011;65772;51.096;17.006;2023-02-24T04:06:10;39.60;;;18.50;;
76818;SDS011;65772;51.096;17.006;2023-02-24T04:08:47;37.30;;;19.10;;
76818;SDS011;65772;51.096;17.006;2023-02-24T04:11:42;38.00;;;18.20;;
76818;SDS011;65772;51.096;17.006;2023-02-24T04:16:54;37.20;;;17.90;;
76818;SDS011;65772;51.096;17.006;2023-02-24T04:19:31;35.40;;;18.10;;
76818;SDS011;65772;51.096;17.006;2023-02-24T04:22:07;46.00;;;21.10;;
76818;SDS011;65772;51.096;17.006;2023-02-24T04:24:42;39.00;;;19.10;;
76818;SDS011;65772;51.096;17.006;2023-02-24T04:27:17;34.40;;;17.40;;
76818;SDS011;65772;51.096;17.006;2023-02-24T04:29:51;38.10;;;18.90;;
76818;SDS011;65772;51.096;17.006;2023-02-24T04:32:25;36.30;;;16.90;;
76818;SDS011;65772;51.096;17.006;2023-02-24T04:35:02;33.40;;;15.70;;
76818;SDS011;65772;51.096;17.006;2023-02-24T04:37:36;37.80;;;18.20;;
76818;SDS011;65772;51.096;17.006;2023-02-24T04:40:12;33.10;;;18.00;;
76818;SDS011;65772;51.096;17.006;2023-02-24T04:42:45;33.20;;;16.70;;
76818;SDS011;65772;51.096;17.006;2023-02-24T04:45:17;35.30;;;18.00;;
76818;SDS011;65772;51.096;17.006;2023-02-24T04:47:49;34.80;;;16.70;;
76818;SDS011;65772;51.096;17.006;2023-02-24T04:50:28;34.50;;;16.60;;
76818;SDS011;65772;51.096;17.006;2023-02-24T04:53:01;37.30;;;17.40;;
76818;SDS011;65772;51.096;17.006;2023-02-24T04:55:35;37.50;;;18.20;;
76818;SDS011;65772;51.096;17.006;2023-02-24T04:58:07;40.60;;;19.70;;
76818;SDS011;65772;51.096;17.006;2023-02-24T05:00:40;34.70;;;16.00;;
76818;SDS011;65772;51.096;17.006;2023-02-24T05:03:10;35.60;;;16.70;;
76818;SDS011;65772;51.096;17.006;2023-02-24T05:05:46;33.80;;;15.00;;
76818;SDS011;65772;51.096;17.006;2023-02-24T05:08:19;31.10;;;14.90;;
76818;SDS011;65772;51.096;17.006;2023-02-24T05:10:50;37.50;;;18.10;;
76818;SDS011;65772;51.096;17.006;2023-02-24T05:13:24;31.80;;;16.10;;
76818;SDS011;65772;51.096;17.006;2023-02-24T05:16:02;33.70;;;17.80;;
76818;SDS011;65772;51.096;17.006;2023-02-24T05:18:34;33.20;;;17.50;;
76818;SDS011;65772;51.096;17.006;2023-02-24T05:21:07;35.70;;;17.30;;
76818;SDS011;65772;51.096;17.006;2023-02-24T05:23:56;33.10;;;16.60;;
76818;SDS011;65772;51.096;17.006;2023-02-24T05:26:33;35.70;;;17.60;;
76818;SDS011;65772;51.096;17.006;2023-02-24T05:29:05;31.60;;;16.70;;
76818;SDS011;65772;51.096;17.006;2023-02-24T05:31:36;34.50;;;17.40;;
76818;SDS011;65772;51.096;17.006;2023-02-24T05:34:07;31.00;;;16.40;;
76818;SDS011;65772;51.096;17.006;2023-02-24T05:36:43;39.10;;;16.80;;
76818;SDS011;65772;51.096;17.006;2023-02-24T05:39:15;28.70;;;14.50;;
76818;SDS011;65772;51.096;17.006;2023-02-24T05:41:47;33.40;;;15.50;;
76818;SDS011;65772;51.096;17.006;2023-02-24T05:44:21;32.50;;;15.80;;
76818;SDS011;65772;51.096;17.006;2023-02-24T05:46:54;34.30;;;17.70;;
76818;SDS011;65772;51.096;17.006;2023-02-24T05:49:27;30.60;;;16.40;;
76818;SDS011;65772;51.096;17.006;2023-02-24T05:52:01;29.40;;;15.90;;
76818;SDS011;65772;51.096;17.006;2023-02-24T05:54:36;30.10;;;15.50;;
76818;SDS011;65772;51.096;17.006;2023-02-24T05:57:08;31.10;;;16.90;;
76818;SDS011;65772;51.096;17.006;2023-02-24T05:59:40;32.80;;;17.20;;
76818;SDS011;65772;51.096;17.006;2023-02-24T06:02:12;27.00;;;14.50;;
76818;SDS011;65772;51.096;17.006;2023-02-24T06:04:49;28.00;;;14.80;;
76818;SDS011;65772;51.096;17.006;2023-02-24T06:07:23;25.20;;;13.20;;
76818;SDS011;65772;51.096;17.006;2023-02-24T06:09:55;32.70;;;15.60;;
76818;SDS011;65772;51.096;17.006;2023-02-24T06:12:27;30.90;;;15.80;;
76818;SDS011;65772;51.096;17.006;2023-02-24T06:15:00;30.30;;;16.40;;
76818;SDS011;65772;51.096;17.006;2023-02-24T06:17:34;32.80;;;16.20;;
76818;SDS011;65772;51.096;17.006;2023-02-24T06:20:07;23.10;;;11.80;;
76818;SDS011;65772;51.096;17.006;2023-02-24T06:22:42;26.20;;;12.80;;
76818;SDS011;65772;51.096;17.006;2023-02-24T06:25:12;17.20;;;9.60;;
76818;SDS011;65772;51.096;17.006;2023-02-24T06:27:45;18.40;;;9.40;;
76818;SDS011;65772;51.096;17.006;2023-02-24T06:30:21;16.50;;;8.20;;
76818;SDS011;65772;51.096;17.006;2023-02-24T06:32:54;16.70;;;8.10;;
76818;SDS011;65772;51.096;17.006;2023-02-24T06:35:24;13.50;;;7.80;;
76818;SDS011;65772;51.096;17.006;2023-02-24T06:37:55;16.80;;;8.30;;
76818;SDS011;65772;51.096;17.006;2023-02-24T06:40:25;16.00;;;8.60;;
76818;SDS011;65772;51.096;17.006;2023-02-24T06:45:26;15.80;;;7.40;;
76818;SDS011;65772;51.096;17.006;2023-02-24T06:47:58;18.30;;;9.50;;
76818;SDS011;65772;51.096;17.006;2023-02-24T06:50:30;19.70;;;9.30;;
76818;SDS011;65772;51.096;17.006;2023-02-24T06:53:00;21.50;;;9.30;;
76818;SDS011;65772;51.096;17.006;2023-02-24T06:55:36;19.50;;;10.60;;
76818;SDS011;65772;51.096;17.006;2023-02-24T06:58:12;18.90;;;10.10;;
76818;SDS011;65772;51.096;17.006;2023-02-24T07:03:24;19.00;;;9.30;;
76818;SDS011;65772;51.096;17.006;2023-02-24T07:06:06;20.90;;;9.70;;
76818;SDS011;65772;51.096;17.006;2023-02-24T07:08:49;21.20;;;9.40;;
76818;SDS011;65772;51.096;17.006;2023-02-24T07:11:20;16.60;;;8.10;;
76818;SDS011;65772;51.096;17.006;2023-02-24T07:13:50;18.60;;;9.50;;
76818;SDS011;65772;51.096;17.006;2023-02-24T07:16:21;16.80;;;8.50;;
76818;SDS011;65772;51.096;17.006;2023-02-24T07:18:53;21.40;;;10.20;;
76818;SDS011;65772;51.096;17.006;2023-02-24T07:21:26;19.10;;;10.00;;
76818;SDS011;65772;51.096;17.006;2023-02-24T07:24:06;19.10;;;8.80;;
76818;SDS011;65772;51.096;17.006;2023-02-24T07:26:40;19.80;;;9.70;;
76818;SDS011;65772;51.096;17.006;2023-02-24T07:29:18;18.10;;;9.50;;
76818;SDS011;65772;51.096;17.006;2023-02-24T07:31:48;20.70;;;9.80;;
76818;SDS011;65772;51.096;17.006;2023-02-24T07:34:22;19.50;;;9.60;;
76818;SDS011;65772;51.096;17.006;2023-02-24T07:36:54;20.70;;;9.10;;
76818;SDS011;65772;51.096;17.006;2023-02-24T07:39:25;20.30;;;8.50;;
76818;SDS011;65772;51.096;17.006;2023-02-24T07:41:56;18.30;;;8.20;;
76818;SDS011;65772;51.096;17.006;2023-02-24T07:44:28;19.50;;;8.10;;
76818;SDS011;65772;51.096;17.006;2023-02-24T07:46:59;19.60;;;8.50;;
76818;SDS011;65772;51.096;17.006;2023-02-24T07:49:38;15.40;;;7.80;;
76818;SDS011;65772;51.096;17.006;2023-02-24T07:52:08;19.60;;;9.80;;
76818;SDS011;65772;51.096;17.006;2023-02-24T07:54:39;19.90;;;9.70;;
76818;SDS011;65772;51.096;17.006;2023-02-24T07:57:09;20.70;;;10.10;;
76818;SDS011;65772;51.096;17.006;2023-02-24T07:59:41;19.10;;;9.70;;
76818;SDS011;65772;51.096;17.006;2023-02-24T08:02:14;20.20;;;9.80;;
76818;SDS011;65772;51.096;17.006;2023-02-24T08:04:45;20.30;;;9.70;;
76818;SDS011;65772;51.096;17.006;2023-02-24T08:07:19;18.60;;;9.30;;
76818;SDS011;65772;51.096;17.006;2023-02-24T08:09:52;18.70;;;8.40;;
76818;SDS011;65772;51.096;17.006;2023-02-24T08:12:41;18.30;;;8.60;;
76818;SDS011;65772;51.096;17.006;2023-02-24T08:15:11;18.70;;;9.00;;
76818;SDS011;65772;51.096;17.006;2023-02-24T08:17:51;16.60;;;9.00;;
76818;SDS011;65772;51.096;17.006;2023-02-24T08:20:26;20.30;;;9.00;;
76818;SDS011;65772;51.096;17.006;2023-02-24T08:23:03;22.20;;;9.60;;
76818;SDS011;65772;51.096;17.006;2023-02-24T08:25:35;22.10;;;9.60;;
76818;SDS011;65772;51.096;17.006;2023-02-24T08:28:11;26.10;;;10.70;;
76818;SDS011;65772;51.096;17.006;2023-02-24T08:30:42;23.80;;;11.00;;
76818;SDS011;65772;51.096;17.006;2023-02-24T08:33:16;22.50;;;10.60;;
76818;SDS011;65772;51.096;17.006;2023-02-24T08:35:51;21.50;;;9.90;;
76818;SDS011;65772;51.096;17.006;2023-02-24T08:38:28;21.60;;;9.30;;
76818;SDS011;65772;51.096;17.006;2023-02-24T08:41:19;21.60;;;8.60;;
76818;SDS011;65772;51.096;17.006;2023-02-24T08:44:10;18.70;;;8.70;;
76818;SDS011;65772;51.096;17.006;2023-02-24T08:46:45;19.40;;;9.10;;
76818;SDS011;65772;51.096;17.006;2023-02-24T08:49:17;18.90;;;8.80;;
76818;SDS011;65772;51.096;17.006;2023-02-24T08:51:51;20.20;;;9.60;;
76818;SDS011;65772;51.096;17.006;2023-02-24T08:54:22;19.70;;;8.90;;
76818;SDS011;65772;51.096;17.006;2023-02-24T08:56:58;17.30;;;7.50;;
76818;SDS011;65772;51.096;17.006;2023-02-24T08:59:35;17.90;;;7.70;;
76818;SDS011;65772;51.096;17.006;2023-02-24T09:02:10;15.70;;;7.80;;
76818;SDS011;65772;51.096;17.006;2023-02-24T09:04:46;17.40;;;7.80;;
76818;SDS011;65772;51.096;17.006;2023-02-24T09:07:19;16.10;;;7.10;;
76818;SDS011;65772;51.096;17.006;2023-02-24T09:09:52;15.10;;;6.70;;
76818;SDS011;65772;51.096;17.006;2023-02-24T09:12:25;13.50;;;6.30;;
76818;SDS011;65772;51.096;17.006;2023-02-24T09:14:57;15.70;;;6.80;;
76818;SDS011;65772;51.096;17.006;2023-02-24T09:17:31;16.40;;;7.30;;
76818;SDS011;65772;51.096;17.006;2023-02-24T09:20:17;15.30;;;7.20;;
76818;SDS011;65772;51.096;17.006;2023-02-24T09:23:18;18.70;;;7.30;;
76818;SDS011;65772;51.096;17.006;2023-02-24T09:25:56;14.70;;;6.70;;
76818;SDS011;65772;51.096;17.006;2023-02-24T09:28:38;15.80;;;6.70;;
76818;SDS011;65772;51.096;17.006;2023-02-24T09:31:21;17.10;;;7.60;;
76818;SDS011;65772;51.096;17.006;2023-02-24T09:34:08;15.70;;;7.20;;
76818;SDS011;65772;51.096;17.006;2023-02-24T09:36:45;14.30;;;6.90;;
76818;SDS011;65772;51.096;17.006;2023-02-24T09:39:31;14.10;;;6.30;;
76818;SDS011;65772;51.096;17.006;2023-02-24T09:42:24;12.70;;;6.60;;
76818;SDS011;65772;51.096;17.006;2023-02-24T09:45:01;13.90;;;6.80;;
76818;SDS011;65772;51.096;17.006;2023-02-24T09:47:38;11.20;;;5.30;;
76818;SDS011;65772;51.096;17.006;2023-02-24T09:50:26;14.50;;;6.60;;
76818;SDS011;65772;51.096;17.006;2023-02-24T09:53:31;14.50;;;5.90;;
76818;SDS011;65772;51.096;17.006;2023-02-24T09:56:17;13.20;;;6.20;;
76818;SDS011;65772;51.096;17.006;2023-02-24T09:58:56;11.90;;;6.50;;
76818;SDS011;65772;51.096;17.006;2023-02-24T10:01:49;16.40;;;7.00;;
76818;SDS011;65772;51.096;17.006;2023-02-24T10:04:40;17.80;;;6.70;;
76818;SDS011;65772;51.096;17.006;2023-02-24T10:07:21;14.20;;;6.30;;
76818;SDS011;65772;51.096;17.006;2023-02-24T10:09:57;17.20;;;5.90;;
76818;SDS011;65772;51.096;17.006;2023-02-24T10:12:50;13.10;;;6.10;;
76818;SDS011;65772;51.096;17.006;2023-02-24T10:18:19;12.20;;;5.00;;
76818;SDS011;65772;51.096;17.006;2023-02-24T10:20:58;12.00;;;5.70;;
76818;SDS011;65772;51.096;17.006;2023-02-24T10:23:37;12.10;;;5.70;;
76818;SDS011;65772;51.096;17.006;2023-02-24T10:26:25;10.00;;;5.20;;
76818;SDS011;65772;51.096;17.006;2023-02-24T10:29:25;11.90;;;4.60;;
76818;SDS011;65772;51.096;17.006;2023-02-24T10:32:18;8.60;;;3.80;;
76818;SDS011;65772;51.096;17.006;2023-02-24T10:34:51;8.60;;;3.40;;
76818;SDS011;65772;51.096;17.006;2023-02-24T10:37:23;7.90;;;3.40;;
76818;SDS011;65772;51.096;17.006;2023-02-24T10:39:57;7.30;;;3.10;;
76818;SDS011;65772;51.096;17.006;2023-02-24T10:42:38;9.50;;;4.00;;
76818;SDS011;65772;51.096;17.006;2023-02-24T10:45:14;7.20;;;3.60;;
76818;SDS011;65772;51.096;17.006;2023-02-24T10:47:51;8.70;;;3.50;;
76818;SDS011;65772;51.096;17.006;2023-02-24T10:50:25;9.10;;;3.80;;
76818;SDS011;65772;51.096;17.006;2023-02-24T10:53:03;8.10;;;3.80;;
76818;SDS011;65772;51.096;17.006;2023-02-24T10:55:53;8.80;;;4.00;;
76818;SDS011;65772;51.096;17.006;2023-02-24T10:58:42;7.60;;;3.40;;
76818;SDS011;65772;51.096;17.006;2023-02-24T11:01:24;7.10;;;3.40;;
76818;SDS011;65772;51.096;17.006;2023-02-24T11:04:12;7.90;;;3.00;;
76818;SDS011;65772;51.096;17.006;2023-02-24T11:07:04;4.80;;;2.40;;
76818;SDS011;65772;51.096;17.006;2023-02-24T11:12:20;6.10;;;2.90;;
76818;SDS011;65772;51.096;17.006;2023-02-24T11:15:16;6.00;;;3.20;;
76818;SDS011;65772;51.096;17.006;2023-02-24T11:18:13;5.30;;;2.50;;
76818;SDS011;65772;51.096;17.006;2023-02-24T11:20:47;6.10;;;3.00;;
76818;SDS011;65772;51.096;17.006;2023-02-24T11:23:21;5.40;;;2.90;;
76818;SDS011;65772;51.096;17.006;2023-02-24T11:25:58;6.10;;;3.00;;
76818;SDS011;65772;51.096;17.006;2023-02-24T11:28:39;6.60;;;3.20;;
76818;SDS011;65772;51.096;17.006;2023-02-24T11:31:24;6.70;;;3.20;;
76818;SDS011;65772;51.096;17.006;2023-02-24T11:36:38;7.90;;;3.70;;
76818;SDS011;65772;51.096;17.006;2023-02-24T11:39:22;6.80;;;3.20;;
76818;SDS011;65772;51.096;17.006;2023-02-24T11:42:06;6.90;;;3.50;;
76818;SDS011;65772;51.096;17.006;2023-02-24T11:44:44;7.90;;;3.70;;
76818;SDS011;65772;51.096;17.006;2023-02-24T11:47:21;7.10;;;3.80;;
76818;SDS011;65772;51.096;17.006;2023-02-24T11:49:59;7.50;;;4.30;;
76818;SDS011;65772;51.096;17.006;2023-02-24T11:52:39;15.90;;;4.80;;
76818;SDS011;65772;51.096;17.006;2023-02-24T11:58:06;9.10;;;4.20;;
76818;SDS011;65772;51.096;17.006;2023-02-24T12:00:47;7.80;;;4.50;;
76818;SDS011;65772;51.096;17.006;2023-02-24T12:03:24;9.40;;;5.20;;
76818;SDS011;65772;51.096;17.006;2023-02-24T12:06:04;7.50;;;4.20;;
76818;SDS011;65772;51.096;17.006;2023-02-24T12:08:42;6.70;;;4.10;;
76818;SDS011;65772;51.096;17.006;2023-02-24T12:11:19;9.50;;;5.00;;
76818;SDS011;65772;51.096;17.006;2023-02-24T12:13:58;9.90;;;4.90;;
76818;SDS011;65772;51.096;17.006;2023-02-24T12:16:42;7.70;;;4.70;;
76818;SDS011;65772;51.096;17.006;2023-02-24T12:19:16;7.90;;;4.70;;
76818;SDS011;65772;51.096;17.006;2023-02-24T12:21:52;8.90;;;4.80;;
76818;SDS011;65772;51.096;17.006;2023-02-24T12:24:29;6.90;;;4.10;;
76818;SDS011;65772;51.096;17.006;2023-02-24T12:27:05;7.70;;;4.10;;
76818;SDS011;65772;51.096;17.006;2023-02-24T12:29:48;7.90;;;4.00;;
76818;SDS011;65772;51.096;17.006;2023-02-24T12:32:26;8.40;;;3.70;;
76818;SDS011;65772;51.096;17.006;2023-02-24T12:35:09;6.40;;;3.20;;
76818;SDS011;65772;51.096;17.006;2023-02-24T12:40:25;6.60;;;3.10;;
76818;SDS011;65772;51.096;17.006;2023-02-24T12:43:07;5.20;;;3.20;;
76818;SDS011;65772;51.096;17.006;2023-02-24T12:45:52;5.70;;;2.90;;
76818;SDS011;65772;51.096;17.006;2023-02-24T12:51:05;4.20;;;2.50;;
76818;SDS011;65772;51.096;17.006;2023-02-24T12:53:45;5.50;;;3.00;;
76818;SDS011;65772;51.096;17.006;2023-02-24T12:56:25;5.60;;;2.50;;
76818;SDS011;65772;51.096;17.006;2023-02-24T12:59:03;6.30;;;2.90;;
76818;SDS011;65772;51.096;17.006;2023-02-24T13:01:39;4.50;;;2.40;;
76818;SDS011;65772;51.096;17.006;2023-02-24T13:04:18;5.00;;;2.60;;
76818;SDS011;65772;51.096;17.006;2023-02-24T13:07:03;5.30;;;2.60;;
76818;SDS011;65772;51.096;17.006;2023-02-24T13:09:46;6.20;;;2.60;;
76818;SDS011;65772;51.096;17.006;2023-02-24T13:12:24;4.60;;;2.20;;
76818;SDS011;65772;51.096;17.006;2023-02-24T13:15:01;5.80;;;2.50;;
76818;SDS011;65772;51.096;17.006;2023-02-24T13:20:24;5.70;;;2.50;;
76818;SDS011;65772;51.096;17.006;2023-02-24T13:22:57;4.90;;;2.70;;
76818;SDS011;65772;51.096;17.006;2023-02-24T13:25:32;4.50;;;2.70;;
76818;SDS011;65772;51.096;17.006;2023-02-24T13:28:05;6.70;;;3.00;;
76818;SDS011;65772;51.096;17.006;2023-02-24T13:30:57;5.80;;;2.50;;
76818;SDS011;65772;51.096;17.006;2023-02-24T13:33:31;4.80;;;2.40;;
76818;SDS011;65772;51.096;17.006;2023-02-24T13:36:09;6.70;;;2.40;;
76818;SDS011;65772;51.096;17.006;2023-02-24T13:38:43;4.80;;;2.50;;
76818;SDS011;65772;51.096;17.006;2023-02-24T13:44:25;5.20;;;2.30;;
76818;SDS011;65772;51.096;17.006;2023-02-24T13:47:02;5.40;;;2.50;;
76818;SDS011;65772;51.096;17.006;2023-02-24T13:49:50;5.00;;;2.30;;
76818;SDS011;65772;51.096;17.006;2023-02-24T13:52:35;4.30;;;2.20;;
76818;SDS011;65772;51.096;17.006;2023-02-24T13:55:25;5.00;;;2.20;;
76818;SDS011;65772;51.096;17.006;2023-02-24T13:58:10;4.40;;;2.50;;
76818;SDS011;65772;51.096;17.006;2023-02-24T14:00:58;5.50;;;2.80;;
76818;SDS011;65772;51.096;17.006;2023-02-24T14:03:35;5.60;;;2.90;;
76818;SDS011;65772;51.096;17.006;2023-02-24T14:06:13;5.40;;;2.70;;
76818;SDS011;65772;51.096;17.006;2023-02-24T14:08:51;4.70;;;2.60;;
76818;SDS011;65772;51.096;17.006;2023-02-24T14:11:25;5.40;;;3.10;;
76818;SDS011;65772;51.096;17.006;2023-02-24T14:13:59;4.30;;;2.80;;
76818;SDS011;65772;51.096;17.006;2023-02-24T14:16:31;5.00;;;2.90;;
76818;SDS011;65772;51.096;17.006;2023-02-24T14:19:10;5.60;;;3.30;;
76818;SDS011;65772;51.096;17.006;2023-02-24T14:21:47;5.70;;;3.30;;
76818;SDS011;65772;51.096;17.006;2023-02-24T14:24:20;5.50;;;3.10;;
76818;SDS011;65772;51.096;17.006;2023-02-24T14:26:52;5.80;;;3.10;;
76818;SDS011;65772;51.096;17.006;2023-02-24T14:29:24;5.10;;;3.00;;
76818;SDS011;65772;51.096;17.006;2023-02-24T14:31:59;7.30;;;3.30;;
76818;SDS011;65772;51.096;17.006;2023-02-24T14:34:30;5.60;;;2.80;;
76818;SDS011;65772;51.096;17.006;2023-02-24T14:37:02;6.50;;;3.40;;
76818;SDS011;65772;51.096;17.006;2023-02-24T14:39:34;8.00;;;3.70;;
76818;SDS011;65772;51.096;17.006;2023-02-24T14:42:11;7.50;;;3.80;;
76818;SDS011;65772;51.096;17.006;2023-02-24T14:44:43;7.60;;;3.50;;
76818;SDS011;65772;51.096;17.006;2023-02-24T14:47:16;7.80;;;3.80;;
76818;SDS011;65772;51.096;17.006;2023-02-24T14:49:52;6.00;;;3.30;;
76818;SDS011;65772;51.096;17.006;2023-02-24T14:52:28;5.80;;;3.40;;
76818;SDS011;65772;51.096;17.006;2023-02-24T14:55:05;7.60;;;3.50;;
76818;SDS011;65772;51.096;17.006;2023-02-24T14:57:40;6.00;;;3.70;;
76818;SDS011;65772;51.096;17.006;2023-02-24T15:00:16;6.90;;;4.20;;
76818;SDS011;65772;51.096;17.006;2023-02-24T15:02:54;7.80;;;4.10;;
76818;SDS011;65772;51.096;17.006;2023-02-24T15:05:32;6.60;;;3.80;;
76818;SDS011;65772;51.096;17.006;2023-02-24T15:08:09;6.20;;;3.60;;
76818;SDS011;65772;51.096;17.006;2023-02-24T15:10:51;8.00;;;3.80;;
76818;SDS011;65772;51.096;17.006;2023-02-24T15:13:25;8.20;;;3.80;;
76818;SDS011;65772;51.096;17.006;2023-02-24T15:16:07;6.70;;;3.70;;
76818;SDS011;65772;51.096;17.006;2023-02-24T15:18:41;8.40;;;3.70;;
76818;SDS011;65772;51.096;17.006;2023-02-24T15:21:20;6.80;;;4.10;;
76818;SDS011;65772;51.096;17.006;2023-02-24T15:23:59;5.90;;;3.40;;
76818;SDS011;65772;51.096;17.006;2023-02-24T15:26:32;7.40;;;3.70;;
76818;SDS011;65772;51.096;17.006;2023-02-24T15:29:12;8.00;;;3.60;;
76818;SDS011;65772;51.096;17.006;2023-02-24T15:31:48;7.90;;;3.50;;
76818;SDS011;65772;51.096;17.006;2023-02-24T15:34:20;5.10;;;3.30;;
76818;SDS011;65772;51.096;17.006;2023-02-24T15:36:54;6.20;;;3.40;;
76818;SDS011;65772;51.096;17.006;2023-02-24T15:39:28;7.10;;;3.10;;
76818;SDS011;65772;51.096;17.006;2023-02-24T15:42:07;6.10;;;3.00;;
76818;SDS011;65772;51.096;17.006;2023-02-24T15:44:52;5.20;;;3.00;;
76818;SDS011;65772;51.096;17.006;2023-02-24T15:47:25;5.20;;;3.00;;
76818;SDS011;65772;51.096;17.006;2023-02-24T15:49:59;9.20;;;3.80;;
76818;SDS011;65772;51.096;17.006;2023-02-24T15:52:29;7.30;;;3.50;;
76818;SDS011;65772;51.096;17.006;2023-02-24T15:55:00;6.90;;;3.60;;
76818;SDS011;65772;51.096;17.006;2023-02-24T15:57:31;6.80;;;3.60;;